sensor_id;sensor_type;location;lat;lon;timestamp;P1;durP1;ratioP1;P2;durP2;ratioP2
15412;SDS011;7805;49.554;7.632;2023-01-29T00:02:04;3.70;;;3.37;;
15412;SDS011;7805;49.554;7.632;2023-01-29T00:04:30;4.43;;;3.40;;
15412;SDS011;7805;49.554;7.632;2023-01-29T00:06:56;3.27;;;2.97;;
15412;SDS011;7805;49.554;7.632;2023-01-29T00:09:22;3.60;;;3.30;;
15412;SDS011;7805;49.554;7.632;2023-01-29T00:11:48;4.00;;;3.60;;
15412;SDS011;7805;49.554;7.632;2023-01-29T00:14:14;4.27;;;3.77;;
15412;SDS011;7805;49.554;7.632;2023-01-29T00:16:39;3.23;;;2.97;;
15412;SDS011;7805;49.554;7.632;2023-01-29T00:19:05;3.83;;;3.53;;
15412;SDS011;7805;49.554;7.632;2023-01-29T00:21:31;4.30;;;3.43;;
15412;SDS011;7805;49.554;7.632;2023-01-29T00:23:57;3.53;;;3.10;;
15412;SDS011;7805;49.554;7.632;2023-01-29T00:26:23;3.80;;;3.50;;
15412;SDS011;7805;49.554;7.632;2023-01-29T00:28:49;3.70;;;3.20;;
15412;SDS011;7805;49.554;7.632;2023-01-29T00:31:18;4.30;;;3.60;;
15412;SDS011;7805;49.554;7.632;2023-01-29T00:33:46;3.70;;;3.40;;
15412;SDS011;7805;49.554;7.632;2023-01-29T00:36:13;4.67;;;3.90;;
15412;SDS011;7805;49.554;7.632;2023-01-29T00:38:39;4.50;;;4.10;;
15412;SDS011;7805;49.554;7.632;2023-01-29T00:41:05;4.77;;;4.27;;
15412;SDS011;7805;49.554;7.632;2023-01-29T00:43:50;4.23;;;3.83;;
15412;SDS011;7805;49.554;7.632;2023-01-29T00:46:34;5.03;;;3.20;;
15412;SDS011;7805;49.554;7.632;2023-01-29T00:49:00;3.93;;;3.50;;
15412;SDS011;7805;49.554;7.632;2023-01-29T00:51:26;6.10;;;3.43;;
15412;SDS011;7805;49.554;7.632;2023-01-29T00:53:51;3.77;;;3.30;;
15412;SDS011;7805;49.554;7.632;2023-01-29T00:56:18;5.00;;;4.10;;
15412;SDS011;7805;49.554;7.632;2023-01-29T00:58:44;2.93;;;2.73;;
15412;SDS011;7805;49.554;7.632;2023-01-29T01:01:09;4.43;;;3.40;;
15412;SDS011;7805;49.554;7.632;2023-01-29T01:03:35;3.40;;;3.10;;
15412;SDS011;7805;49.554;7.632;2023-01-29T01:06:06;3.47;;;2.87;;
15412;SDS011;7805;49.554;7.632;2023-01-29T01:08:34;4.10;;;2.73;;
15412;SDS011;7805;49.554;7.632;2023-01-29T01:11:19;3.07;;;2.77;;
15412;SDS011;7805;49.554;7.632;2023-01-29T01:13:45;2.83;;;2.63;;
15412;SDS011;7805;49.554;7.632;2023-01-29T01:16:12;3.07;;;2.87;;
15412;SDS011;7805;49.554;7.632;2023-01-29T01:18:40;3.63;;;3.33;;
15412;SDS011;7805;49.554;7.632;2023-01-29T01:21:05;3.30;;;3.00;;
15412;SDS011;7805;49.554;7.632;2023-01-29T01:23:31;3.33;;;3.00;;
15412;SDS011;7805;49.554;7.632;2023-01-29T01:25:57;3.37;;;3.07;;
15412;SDS011;7805;49.554;7.632;2023-01-29T01:28:23;3.73;;;3.03;;
15412;SDS011;7805;49.554;7.632;2023-01-29T01:30:48;3.77;;;2.50;;
15412;SDS011;7805;49.554;7.632;2023-01-29T01:33:14;3.37;;;3.00;;
15412;SDS011;7805;49.554;7.632;2023-01-29T01:35:40;3.47;;;2.77;;
15412;SDS011;7805;49.554;7.632;2023-01-29T01:38:06;3.03;;;2.53;;
15412;SDS011;7805;49.554;7.632;2023-01-29T01:40:31;2.73;;;2.53;;
15412;SDS011;7805;49.554;7.632;2023-01-29T01:42:58;3.00;;;2.70;;
15412;SDS011;7805;49.554;7.632;2023-01-29T01:48:10;2.50;;;2.40;;
15412;SDS011;7805;49.554;7.632;2023-01-29T01:50:57;2.73;;;2.60;;
15412;SDS011;7805;49.554;7.632;2023-01-29T01:53:35;4.23;;;3.00;;
15412;SDS011;7805;49.554;7.632;2023-01-29T01:56:05;3.43;;;3.10;;
15412;SDS011;7805;49.554;7.632;2023-01-29T01:58:35;3.20;;;2.83;;
15412;SDS011;7805;49.554;7.632;2023-01-29T02:01:05;3.27;;;3.00;;
15412;SDS011;7805;49.554;7.632;2023-01-29T02:03:34;3.03;;;2.73;;
15412;SDS011;7805;49.554;7.632;2023-01-29T02:06:23;3.67;;;2.80;;
15412;SDS011;7805;49.554;7.632;2023-01-29T02:09:09;3.37;;;3.07;;
15412;SDS011;7805;49.554;7.632;2023-01-29T02:11:57;4.13;;;2.63;;
15412;SDS011;7805;49.554;7.632;2023-01-29T02:14:23;3.10;;;2.50;;
15412;SDS011;7805;49.554;7.632;2023-01-29T02:16:49;2.80;;;2.40;;
15412;SDS011;7805;49.554;7.632;2023-01-29T02:19:15;3.63;;;2.80;;
15412;SDS011;7805;49.554;7.632;2023-01-29T02:22:08;3.30;;;3.00;;
15412;SDS011;7805;49.554;7.632;2023-01-29T02:25:01;3.47;;;3.17;;
15412;SDS011;7805;49.554;7.632;2023-01-29T02:30:38;3.77;;;3.37;;
15412;SDS011;7805;49.554;7.632;2023-01-29T02:36:12;3.73;;;3.43;;
15412;SDS011;7805;49.554;7.632;2023-01-29T02:44:33;3.80;;;3.50;;
15412;SDS011;7805;49.554;7.632;2023-01-29T02:47:16;4.10;;;3.40;;
15412;SDS011;7805;49.554;7.632;2023-01-29T02:49:55;4.20;;;3.30;;
15412;SDS011;7805;49.554;7.632;2023-01-29T02:52:35;5.70;;;3.57;;
15412;SDS011;7805;49.554;7.632;2023-01-29T02:55:09;3.93;;;3.53;;
15412;SDS011;7805;49.554;7.632;2023-01-29T02:57:40;6.63;;;3.80;;
15412;SDS011;7805;49.554;7.632;2023-01-29T03:02:48;3.73;;;3.33;;
15412;SDS011;7805;49.554;7.632;2023-01-29T03:05:27;3.33;;;3.03;;
15412;SDS011;7805;49.554;7.632;2023-01-29T03:07:59;5.53;;;3.50;;
15412;SDS011;7805;49.554;7.632;2023-01-29T03:10:30;3.87;;;3.40;;
15412;SDS011;7805;49.554;7.632;2023-01-29T03:15:44;3.63;;;3.30;;
15412;SDS011;7805;49.554;7.632;2023-01-29T03:18:17;3.70;;;3.40;;
15412;SDS011;7805;49.554;7.632;2023-01-29T03:20:45;3.70;;;3.40;;
15412;SDS011;7805;49.554;7.632;2023-01-29T03:23:24;4.40;;;3.50;;
15412;SDS011;7805;49.554;7.632;2023-01-29T03:26:17;3.60;;;3.30;;
15412;SDS011;7805;49.554;7.632;2023-01-29T03:29:04;3.53;;;3.20;;
15412;SDS011;7805;49.554;7.632;2023-01-29T03:31:49;4.00;;;3.70;;
15412;SDS011;7805;49.554;7.632;2023-01-29T03:34:39;4.47;;;3.93;;
15412;SDS011;7805;49.554;7.632;2023-01-29T03:40:13;4.07;;;3.30;;
15412;SDS011;7805;49.554;7.632;2023-01-29T03:56:13;4.17;;;3.87;;
15412;SDS011;7805;49.554;7.632;2023-01-29T04:01:28;4.33;;;3.90;;
15412;SDS011;7805;49.554;7.632;2023-01-29T04:06:56;4.90;;;4.40;;
15412;SDS011;7805;49.554;7.632;2023-01-29T04:12:04;4.13;;;3.40;;
15412;SDS011;7805;49.554;7.632;2023-01-29T04:14:35;5.13;;;4.60;;
15412;SDS011;7805;49.554;7.632;2023-01-29T04:17:11;4.03;;;3.77;;
15412;SDS011;7805;49.554;7.632;2023-01-29T04:20:00;3.60;;;3.30;;
15412;SDS011;7805;49.554;7.632;2023-01-29T04:22:33;4.10;;;3.73;;
15412;SDS011;7805;49.554;7.632;2023-01-29T04:25:01;4.07;;;3.77;;
15412;SDS011;7805;49.554;7.632;2023-01-29T04:30:42;4.63;;;4.10;;
15412;SDS011;7805;49.554;7.632;2023-01-29T04:44:17;5.17;;;4.67;;
15412;SDS011;7805;49.554;7.632;2023-01-29T04:47:02;4.80;;;4.30;;
15412;SDS011;7805;49.554;7.632;2023-01-29T04:50:01;5.03;;;4.10;;
15412;SDS011;7805;49.554;7.632;2023-01-29T04:53:06;7.37;;;4.80;;
15412;SDS011;7805;49.554;7.632;2023-01-29T04:55:57;5.40;;;4.13;;
15412;SDS011;7805;49.554;7.632;2023-01-29T04:58:42;3.90;;;3.60;;
15412;SDS011;7805;49.554;7.632;2023-01-29T05:01:23;4.23;;;3.87;;
15412;SDS011;7805;49.554;7.632;2023-01-29T05:03:53;4.53;;;4.07;;
15412;SDS011;7805;49.554;7.632;2023-01-29T05:06:21;4.30;;;4.00;;
15412;SDS011;7805;49.554;7.632;2023-01-29T05:08:49;4.40;;;4.00;;
15412;SDS011;7805;49.554;7.632;2023-01-29T05:11:16;5.13;;;4.60;;
15412;SDS011;7805;49.554;7.632;2023-01-29T05:13:42;4.80;;;4.23;;
15412;SDS011;7805;49.554;7.632;2023-01-29T05:16:22;4.07;;;3.77;;
15412;SDS011;7805;49.554;7.632;2023-01-29T05:18:54;4.77;;;3.90;;
15412;SDS011;7805;49.554;7.632;2023-01-29T05:21:20;5.47;;;3.67;;
15412;SDS011;7805;49.554;7.632;2023-01-29T05:24:04;4.07;;;3.77;;
15412;SDS011;7805;49.554;7.632;2023-01-29T05:26:32;7.47;;;4.00;;
15412;SDS011;7805;49.554;7.632;2023-01-29T05:29:17;3.93;;;3.53;;
15412;SDS011;7805;49.554;7.632;2023-01-29T05:31:43;4.97;;;3.90;;
15412;SDS011;7805;49.554;7.632;2023-01-29T05:34:09;4.57;;;4.17;;
15412;SDS011;7805;49.554;7.632;2023-01-29T05:36:34;5.63;;;4.67;;
15412;SDS011;7805;49.554;7.632;2023-01-29T05:39:00;4.63;;;4.23;;
15412;SDS011;7805;49.554;7.632;2023-01-29T05:41:25;5.37;;;4.57;;
15412;SDS011;7805;49.554;7.632;2023-01-29T05:43:51;4.60;;;4.13;;
15412;SDS011;7805;49.554;7.632;2023-01-29T05:46:16;4.93;;;4.37;;
15412;SDS011;7805;49.554;7.632;2023-01-29T05:48:42;4.77;;;4.33;;
15412;SDS011;7805;49.554;7.632;2023-01-29T05:51:08;5.90;;;4.07;;
15412;SDS011;7805;49.554;7.632;2023-01-29T05:53:33;4.67;;;4.27;;
15412;SDS011;7805;49.554;7.632;2023-01-29T05:55:59;4.27;;;3.93;;
15412;SDS011;7805;49.554;7.632;2023-01-29T05:58:26;4.57;;;4.17;;
15412;SDS011;7805;49.554;7.632;2023-01-29T06:00:51;5.10;;;4.57;;
15412;SDS011;7805;49.554;7.632;2023-01-29T06:03:17;5.97;;;5.37;;
15412;SDS011;7805;49.554;7.632;2023-01-29T06:05:42;5.00;;;4.60;;
15412;SDS011;7805;49.554;7.632;2023-01-29T06:08:08;5.07;;;3.70;;
15412;SDS011;7805;49.554;7.632;2023-01-29T06:10:36;4.70;;;3.97;;
15412;SDS011;7805;49.554;7.632;2023-01-29T06:13:02;5.23;;;4.73;;
15412;SDS011;7805;49.554;7.632;2023-01-29T06:15:28;9.13;;;7.30;;
15412;SDS011;7805;49.554;7.632;2023-01-29T06:17:53;5.73;;;5.20;;
15412;SDS011;7805;49.554;7.632;2023-01-29T06:20:20;5.53;;;4.53;;
15412;SDS011;7805;49.554;7.632;2023-01-29T06:22:46;9.13;;;5.70;;
15412;SDS011;7805;49.554;7.632;2023-01-29T06:25:11;5.20;;;4.20;;
15412;SDS011;7805;49.554;7.632;2023-01-29T06:27:37;7.97;;;5.20;;
15412;SDS011;7805;49.554;7.632;2023-01-29T06:30:03;4.97;;;4.57;;
15412;SDS011;7805;49.554;7.632;2023-01-29T06:32:29;5.17;;;4.77;;
15412;SDS011;7805;49.554;7.632;2023-01-29T06:34:55;5.47;;;4.13;;
15412;SDS011;7805;49.554;7.632;2023-01-29T06:37:20;6.70;;;5.20;;
15412;SDS011;7805;49.554;7.632;2023-01-29T06:39:46;6.87;;;4.60;;
15412;SDS011;7805;49.554;7.632;2023-01-29T06:42:11;4.73;;;4.33;;
15412;SDS011;7805;49.554;7.632;2023-01-29T06:44:37;5.90;;;4.43;;
15412;SDS011;7805;49.554;7.632;2023-01-29T06:47:02;7.43;;;4.70;;
15412;SDS011;7805;49.554;7.632;2023-01-29T06:49:28;6.70;;;5.23;;
15412;SDS011;7805;49.554;7.632;2023-01-29T06:51:53;5.00;;;4.37;;
15412;SDS011;7805;49.554;7.632;2023-01-29T06:54:19;5.13;;;4.50;;
15412;SDS011;7805;49.554;7.632;2023-01-29T06:56:44;6.00;;;4.60;;
15412;SDS011;7805;49.554;7.632;2023-01-29T06:59:10;5.97;;;4.77;;
15412;SDS011;7805;49.554;7.632;2023-01-29T07:01:39;8.00;;;4.90;;
15412;SDS011;7805;49.554;7.632;2023-01-29T07:04:06;4.83;;;4.33;;
15412;SDS011;7805;49.554;7.632;2023-01-29T07:06:32;4.80;;;4.30;;
15412;SDS011;7805;49.554;7.632;2023-01-29T07:08:57;6.03;;;4.53;;
15412;SDS011;7805;49.554;7.632;2023-01-29T07:11:23;5.13;;;4.50;;
15412;SDS011;7805;49.554;7.632;2023-01-29T07:13:49;5.30;;;4.63;;
15412;SDS011;7805;49.554;7.632;2023-01-29T07:16:14;5.83;;;5.23;;
15412;SDS011;7805;49.554;7.632;2023-01-29T07:18:40;5.10;;;4.57;;
15412;SDS011;7805;49.554;7.632;2023-01-29T07:21:05;5.23;;;4.43;;
15412;SDS011;7805;49.554;7.632;2023-01-29T07:23:32;5.90;;;4.13;;
15412;SDS011;7805;49.554;7.632;2023-01-29T07:26:01;4.40;;;4.00;;
15412;SDS011;7805;49.554;7.632;2023-01-29T07:28:29;4.90;;;4.50;;
15412;SDS011;7805;49.554;7.632;2023-01-29T07:30:58;6.33;;;4.87;;
15412;SDS011;7805;49.554;7.632;2023-01-29T07:33:23;4.70;;;4.30;;
15412;SDS011;7805;49.554;7.632;2023-01-29T07:35:49;5.07;;;4.63;;
15412;SDS011;7805;49.554;7.632;2023-01-29T07:38:15;5.53;;;4.70;;
15412;SDS011;7805;49.554;7.632;2023-01-29T07:40:40;4.73;;;4.30;;
15412;SDS011;7805;49.554;7.632;2023-01-29T07:43:06;8.77;;;6.83;;
15412;SDS011;7805;49.554;7.632;2023-01-29T07:45:34;8.63;;;6.50;;
15412;SDS011;7805;49.554;7.632;2023-01-29T07:48:00;5.30;;;4.77;;
15412;SDS011;7805;49.554;7.632;2023-01-29T07:50:26;7.13;;;5.30;;
15412;SDS011;7805;49.554;7.632;2023-01-29T07:52:55;4.73;;;4.23;;
15412;SDS011;7805;49.554;7.632;2023-01-29T07:55:21;5.57;;;4.23;;
15412;SDS011;7805;49.554;7.632;2023-01-29T07:57:47;5.77;;;4.90;;
15412;SDS011;7805;49.554;7.632;2023-01-29T08:00:18;5.10;;;4.43;;
15412;SDS011;7805;49.554;7.632;2023-01-29T08:02:44;5.97;;;4.43;;
15412;SDS011;7805;49.554;7.632;2023-01-29T08:05:10;6.00;;;4.73;;
15412;SDS011;7805;49.554;7.632;2023-01-29T08:07:36;6.07;;;5.23;;
15412;SDS011;7805;49.554;7.632;2023-01-29T08:10:01;5.53;;;4.77;;
15412;SDS011;7805;49.554;7.632;2023-01-29T08:12:27;6.30;;;5.00;;
15412;SDS011;7805;49.554;7.632;2023-01-29T08:14:52;5.23;;;4.70;;
15412;SDS011;7805;49.554;7.632;2023-01-29T08:17:18;4.87;;;4.47;;
15412;SDS011;7805;49.554;7.632;2023-01-29T08:19:43;5.07;;;4.30;;
15412;SDS011;7805;49.554;7.632;2023-01-29T08:22:09;5.93;;;5.43;;
15412;SDS011;7805;49.554;7.632;2023-01-29T08:24:35;5.77;;;5.27;;
15412;SDS011;7805;49.554;7.632;2023-01-29T08:27:00;5.10;;;4.60;;
15412;SDS011;7805;49.554;7.632;2023-01-29T08:29:26;7.73;;;5.57;;
15412;SDS011;7805;49.554;7.632;2023-01-29T08:31:51;6.33;;;5.73;;
15412;SDS011;7805;49.554;7.632;2023-01-29T08:34:17;7.23;;;6.00;;
15412;SDS011;7805;49.554;7.632;2023-01-29T08:36:42;7.50;;;6.07;;
15412;SDS011;7805;49.554;7.632;2023-01-29T08:39:08;6.13;;;5.53;;
15412;SDS011;7805;49.554;7.632;2023-01-29T08:41:34;12.20;;;8.70;;
15412;SDS011;7805;49.554;7.632;2023-01-29T08:43:59;7.73;;;6.13;;
15412;SDS011;7805;49.554;7.632;2023-01-29T08:46:28;7.47;;;5.43;;
15412;SDS011;7805;49.554;7.632;2023-01-29T08:48:54;5.57;;;4.63;;
15412;SDS011;7805;49.554;7.632;2023-01-29T08:51:19;5.23;;;4.77;;
15412;SDS011;7805;49.554;7.632;2023-01-29T08:53:46;6.80;;;6.10;;
15412;SDS011;7805;49.554;7.632;2023-01-29T08:56:11;6.57;;;5.90;;
15412;SDS011;7805;49.554;7.632;2023-01-29T08:58:37;6.60;;;6.03;;
15412;SDS011;7805;49.554;7.632;2023-01-29T09:01:06;6.60;;;6.00;;
15412;SDS011;7805;49.554;7.632;2023-01-29T09:03:33;8.03;;;7.33;;
15412;SDS011;7805;49.554;7.632;2023-01-29T09:05:59;7.33;;;6.63;;
15412;SDS011;7805;49.554;7.632;2023-01-29T09:08:24;6.80;;;5.63;;
15412;SDS011;7805;49.554;7.632;2023-01-29T09:10:50;6.03;;;5.43;;
15412;SDS011;7805;49.554;7.632;2023-01-29T09:13:16;6.73;;;6.20;;
15412;SDS011;7805;49.554;7.632;2023-01-29T09:15:41;7.10;;;6.00;;
15412;SDS011;7805;49.554;7.632;2023-01-29T09:18:07;6.20;;;5.60;;
15412;SDS011;7805;49.554;7.632;2023-01-29T09:20:33;6.57;;;5.03;;
15412;SDS011;7805;49.554;7.632;2023-01-29T09:23:02;6.53;;;5.93;;
15412;SDS011;7805;49.554;7.632;2023-01-29T09:25:32;6.40;;;4.90;;
15412;SDS011;7805;49.554;7.632;2023-01-29T09:27:58;8.13;;;7.27;;
15412;SDS011;7805;49.554;7.632;2023-01-29T09:30:24;7.60;;;6.80;;
15412;SDS011;7805;49.554;7.632;2023-01-29T09:32:50;10.20;;;9.13;;
15412;SDS011;7805;49.554;7.632;2023-01-29T09:35:15;9.23;;;7.90;;
15412;SDS011;7805;49.554;7.632;2023-01-29T09:37:41;9.47;;;7.40;;
15412;SDS011;7805;49.554;7.632;2023-01-29T09:40:07;14.30;;;9.77;;
15412;SDS011;7805;49.554;7.632;2023-01-29T09:42:43;9.10;;;7.57;;
15412;SDS011;7805;49.554;7.632;2023-01-29T09:45:15;6.63;;;5.17;;
15412;SDS011;7805;49.554;7.632;2023-01-29T09:47:48;6.53;;;4.60;;
15412;SDS011;7805;49.554;7.632;2023-01-29T09:55:36;4.93;;;4.43;;
15412;SDS011;7805;49.554;7.632;2023-01-29T09:58:17;5.40;;;4.90;;
15412;SDS011;7805;49.554;7.632;2023-01-29T10:09:08;8.07;;;5.97;;
15412;SDS011;7805;49.554;7.632;2023-01-29T10:19:44;9.23;;;6.40;;
15412;SDS011;7805;49.554;7.632;2023-01-29T10:24:56;15.83;;;14.30;;
15412;SDS011;7805;49.554;7.632;2023-01-29T10:27:35;8.47;;;7.07;;
15412;SDS011;7805;49.554;7.632;2023-01-29T10:30:25;8.50;;;7.70;;
15412;SDS011;7805;49.554;7.632;2023-01-29T10:32:58;7.60;;;6.80;;
15412;SDS011;7805;49.554;7.632;2023-01-29T10:35:28;4.80;;;4.40;;
15412;SDS011;7805;49.554;7.632;2023-01-29T10:37:55;5.20;;;4.70;;
15412;SDS011;7805;49.554;7.632;2023-01-29T10:40:32;7.40;;;5.67;;
15412;SDS011;7805;49.554;7.632;2023-01-29T10:43:13;6.90;;;6.20;;
15412;SDS011;7805;49.554;7.632;2023-01-29T10:49:05;6.03;;;5.53;;
15412;SDS011;7805;49.554;7.632;2023-01-29T11:02:25;6.87;;;5.47;;
15412;SDS011;7805;49.554;7.632;2023-01-29T11:04:51;6.60;;;6.00;;
15412;SDS011;7805;49.554;7.632;2023-01-29T11:07:17;9.03;;;7.70;;
15412;SDS011;7805;49.554;7.632;2023-01-29T11:09:50;6.97;;;6.37;;
15412;SDS011;7805;49.554;7.632;2023-01-29T11:12:31;6.17;;;5.40;;
15412;SDS011;7805;49.554;7.632;2023-01-29T11:17:24;6.50;;;5.90;;
15412;SDS011;7805;49.554;7.632;2023-01-29T11:19:50;6.03;;;5.53;;
15412;SDS011;7805;49.554;7.632;2023-01-29T11:22:23;9.07;;;7.80;;
15412;SDS011;7805;49.554;7.632;2023-01-29T11:25:09;6.23;;;5.63;;
15412;SDS011;7805;49.554;7.632;2023-01-29T11:27:44;6.03;;;5.53;;
15412;SDS011;7805;49.554;7.632;2023-01-29T11:30:15;6.63;;;6.03;;
15412;SDS011;7805;49.554;7.632;2023-01-29T11:32:55;9.63;;;8.67;;
15412;SDS011;7805;49.554;7.632;2023-01-29T11:35:36;9.60;;;7.87;;
15412;SDS011;7805;49.554;7.632;2023-01-29T11:38:06;5.20;;;4.70;;
15412;SDS011;7805;49.554;7.632;2023-01-29T11:40:49;5.77;;;5.17;;
15412;SDS011;7805;49.554;7.632;2023-01-29T11:45:55;10.40;;;7.67;;
15412;SDS011;7805;49.554;7.632;2023-01-29T11:48:42;5.30;;;4.60;;
15412;SDS011;7805;49.554;7.632;2023-01-29T11:51:22;4.70;;;4.40;;
15412;SDS011;7805;49.554;7.632;2023-01-29T11:53:57;5.13;;;4.63;;
15412;SDS011;7805;49.554;7.632;2023-01-29T11:56:26;5.37;;;4.83;;
15412;SDS011;7805;49.554;7.632;2023-01-29T12:04:45;6.07;;;5.30;;
15412;SDS011;7805;49.554;7.632;2023-01-29T12:07:12;6.00;;;5.50;;
15412;SDS011;7805;49.554;7.632;2023-01-29T12:09:40;6.17;;;5.67;;
15412;SDS011;7805;49.554;7.632;2023-01-29T12:15:29;5.97;;;5.47;;
15412;SDS011;7805;49.554;7.632;2023-01-29T12:20:33;5.83;;;5.33;;
15412;SDS011;7805;49.554;7.632;2023-01-29T12:31:07;20.20;;;16.63;;
15412;SDS011;7805;49.554;7.632;2023-01-29T12:36:32;39.43;;;29.97;;
15412;SDS011;7805;49.554;7.632;2023-01-29T12:39:11;12.30;;;11.10;;
15412;SDS011;7805;49.554;7.632;2023-01-29T12:41:57;12.57;;;11.27;;
15412;SDS011;7805;49.554;7.632;2023-01-29T12:47:05;6.70;;;6.10;;
15412;SDS011;7805;49.554;7.632;2023-01-29T12:49:38;9.93;;;8.60;;
15412;SDS011;7805;49.554;7.632;2023-01-29T12:52:13;9.80;;;7.60;;
15412;SDS011;7805;49.554;7.632;2023-01-29T12:54:47;8.80;;;7.87;;
15412;SDS011;7805;49.554;7.632;2023-01-29T12:57:22;6.30;;;5.70;;
15412;SDS011;7805;49.554;7.632;2023-01-29T13:00:12;6.83;;;6.17;;
15412;SDS011;7805;49.554;7.632;2023-01-29T13:05:58;6.40;;;5.90;;
15412;SDS011;7805;49.554;7.632;2023-01-29T13:08:29;6.43;;;5.60;;
15412;SDS011;7805;49.554;7.632;2023-01-29T13:11:02;6.60;;;6.00;;
15412;SDS011;7805;49.554;7.632;2023-01-29T13:16:17;6.70;;;6.10;;
15412;SDS011;7805;49.554;7.632;2023-01-29T13:21:54;7.33;;;5.90;;
15412;SDS011;7805;49.554;7.632;2023-01-29T13:24:23;7.33;;;6.30;;
15412;SDS011;7805;49.554;7.632;2023-01-29T13:26:51;6.67;;;6.10;;
15412;SDS011;7805;49.554;7.632;2023-01-29T13:29:24;7.50;;;6.80;;
15412;SDS011;7805;49.554;7.632;2023-01-29T13:31:55;9.53;;;8.53;;
15412;SDS011;7805;49.554;7.632;2023-01-29T13:34:36;9.77;;;7.87;;
15412;SDS011;7805;49.554;7.632;2023-01-29T13:37:10;14.77;;;11.83;;
15412;SDS011;7805;49.554;7.632;2023-01-29T13:39:49;11.30;;;10.20;;
15412;SDS011;7805;49.554;7.632;2023-01-29T13:44:50;7.17;;;6.47;;
15412;SDS011;7805;49.554;7.632;2023-01-29T13:47:24;6.47;;;5.87;;
15412;SDS011;7805;49.554;7.632;2023-01-29T13:49:53;6.13;;;5.53;;
15412;SDS011;7805;49.554;7.632;2023-01-29T14:05:39;7.00;;;6.30;;
15412;SDS011;7805;49.554;7.632;2023-01-29T14:10:37;6.43;;;5.90;;
15412;SDS011;7805;49.554;7.632;2023-01-29T14:15:37;7.00;;;6.40;;
15412;SDS011;7805;49.554;7.632;2023-01-29T14:21:03;6.07;;;5.57;;
15412;SDS011;7805;49.554;7.632;2023-01-29T14:26:33;7.20;;;6.40;;
15412;SDS011;7805;49.554;7.632;2023-01-29T14:29:06;7.57;;;6.37;;
15412;SDS011;7805;49.554;7.632;2023-01-29T14:31:41;8.47;;;7.20;;
15412;SDS011;7805;49.554;7.632;2023-01-29T14:34:41;7.77;;;6.97;;
15412;SDS011;7805;49.554;7.632;2023-01-29T14:37:18;8.00;;;7.17;;
15412;SDS011;7805;49.554;7.632;2023-01-29T14:42:25;9.33;;;7.87;;
15412;SDS011;7805;49.554;7.632;2023-01-29T14:53:17;9.10;;;8.20;;
15412;SDS011;7805;49.554;7.632;2023-01-29T14:56:14;10.20;;;9.17;;
15412;SDS011;7805;49.554;7.632;2023-01-29T14:58:42;9.47;;;8.50;;
15412;SDS011;7805;49.554;7.632;2023-01-29T15:01:26;10.27;;;8.63;;
15412;SDS011;7805;49.554;7.632;2023-01-29T15:06:31;12.93;;;9.53;;
15412;SDS011;7805;49.554;7.632;2023-01-29T15:09:40;10.67;;;9.57;;
15412;SDS011;7805;49.554;7.632;2023-01-29T15:18:07;11.17;;;9.43;;
15412;SDS011;7805;49.554;7.632;2023-01-29T15:20:38;9.83;;;8.83;;
15412;SDS011;7805;49.554;7.632;2023-01-29T15:25:50;18.23;;;13.10;;
15412;SDS011;7805;49.554;7.632;2023-01-29T15:28:18;13.30;;;10.17;;
15412;SDS011;7805;49.554;7.632;2023-01-29T15:30:44;12.43;;;10.70;;
15412;SDS011;7805;49.554;7.632;2023-01-29T15:33:09;12.57;;;11.23;;
15412;SDS011;7805;49.554;7.632;2023-01-29T15:35:40;12.97;;;10.53;;
15412;SDS011;7805;49.554;7.632;2023-01-29T15:38:14;11.40;;;10.20;;
15412;SDS011;7805;49.554;7.632;2023-01-29T15:40:51;13.77;;;10.77;;
15412;SDS011;7805;49.554;7.632;2023-01-29T15:43:22;14.17;;;10.60;;
15412;SDS011;7805;49.554;7.632;2023-01-29T15:45:48;12.37;;;10.63;;
15412;SDS011;7805;49.554;7.632;2023-01-29T15:48:17;12.60;;;10.40;;
15412;SDS011;7805;49.554;7.632;2023-01-29T15:50:46;11.03;;;9.87;;
15412;SDS011;7805;49.554;7.632;2023-01-29T15:53:18;14.77;;;10.80;;
15412;SDS011;7805;49.554;7.632;2023-01-29T15:55:47;14.23;;;11.03;;
15412;SDS011;7805;49.554;7.632;2023-01-29T15:58:21;14.17;;;11.73;;
15412;SDS011;7805;49.554;7.632;2023-01-29T16:00:52;17.37;;;11.80;;
15412;SDS011;7805;49.554;7.632;2023-01-29T16:03:20;15.80;;;11.27;;
15412;SDS011;7805;49.554;7.632;2023-01-29T16:05:47;11.70;;;9.47;;
15412;SDS011;7805;49.554;7.632;2023-01-29T16:08:14;15.77;;;11.10;;
15412;SDS011;7805;49.554;7.632;2023-01-29T16:10:41;12.53;;;9.50;;
15412;SDS011;7805;49.554;7.632;2023-01-29T16:13:15;12.07;;;10.10;;
15412;SDS011;7805;49.554;7.632;2023-01-29T16:15:58;12.60;;;9.17;;
15412;SDS011;7805;49.554;7.632;2023-01-29T16:18:38;13.73;;;10.20;;
15412;SDS011;7805;49.554;7.632;2023-01-29T16:21:10;16.57;;;11.17;;
15412;SDS011;7805;49.554;7.632;2023-01-29T16:23:41;15.33;;;11.37;;
15412;SDS011;7805;49.554;7.632;2023-01-29T16:26:14;13.20;;;9.80;;
15412;SDS011;7805;49.554;7.632;2023-01-29T16:28:45;13.20;;;9.63;;
15412;SDS011;7805;49.554;7.632;2023-01-29T16:31:11;14.73;;;9.90;;
15412;SDS011;7805;49.554;7.632;2023-01-29T16:33:44;13.83;;;10.00;;
15412;SDS011;7805;49.554;7.632;2023-01-29T16:36:17;13.20;;;10.07;;
15412;SDS011;7805;49.554;7.632;2023-01-29T16:38:46;13.23;;;10.53;;
15412;SDS011;7805;49.554;7.632;2023-01-29T16:43:50;14.57;;;10.87;;
15412;SDS011;7805;49.554;7.632;2023-01-29T16:49:09;15.87;;;13.30;;
15412;SDS011;7805;49.554;7.632;2023-01-29T16:51:50;20.37;;;15.23;;
15412;SDS011;7805;49.554;7.632;2023-01-29T16:54:16;16.70;;;13.83;;
15412;SDS011;7805;49.554;7.632;2023-01-29T16:56:47;21.00;;;16.37;;
15412;SDS011;7805;49.554;7.632;2023-01-29T16:59:28;18.17;;;14.73;;
15412;SDS011;7805;49.554;7.632;2023-01-29T17:01:58;15.63;;;12.03;;
15412;SDS011;7805;49.554;7.632;2023-01-29T17:04:24;16.87;;;12.60;;
15412;SDS011;7805;49.554;7.632;2023-01-29T17:06:53;17.03;;;11.63;;
15412;SDS011;7805;49.554;7.632;2023-01-29T17:09:31;14.83;;;11.00;;
15412;SDS011;7805;49.554;7.632;2023-01-29T17:11:59;16.10;;;11.17;;
15412;SDS011;7805;49.554;7.632;2023-01-29T17:14:31;12.87;;;10.13;;
15412;SDS011;7805;49.554;7.632;2023-01-29T17:19:29;14.63;;;10.20;;
15412;SDS011;7805;49.554;7.632;2023-01-29T17:21:55;13.13;;;10.27;;
15412;SDS011;7805;49.554;7.632;2023-01-29T17:24:22;14.17;;;11.00;;
15412;SDS011;7805;49.554;7.632;2023-01-29T17:26:47;15.80;;;11.97;;
15412;SDS011;7805;49.554;7.632;2023-01-29T17:29:14;14.93;;;11.00;;
15412;SDS011;7805;49.554;7.632;2023-01-29T17:31:43;16.50;;;11.63;;
15412;SDS011;7805;49.554;7.632;2023-01-29T17:34:10;18.07;;;11.70;;
15412;SDS011;7805;49.554;7.632;2023-01-29T17:36:38;15.47;;;11.80;;
15412;SDS011;7805;49.554;7.632;2023-01-29T17:39:15;15.50;;;10.70;;
15412;SDS011;7805;49.554;7.632;2023-01-29T17:41:49;14.40;;;11.13;;
15412;SDS011;7805;49.554;7.632;2023-01-29T17:44:22;14.87;;;11.33;;
15412;SDS011;7805;49.554;7.632;2023-01-29T17:46:50;15.63;;;11.73;;
15412;SDS011;7805;49.554;7.632;2023-01-29T17:51:50;16.73;;;12.83;;
15412;SDS011;7805;49.554;7.632;2023-01-29T17:54:16;17.80;;;14.03;;
15412;SDS011;7805;49.554;7.632;2023-01-29T17:56:42;21.20;;;14.60;;
15412;SDS011;7805;49.554;7.632;2023-01-29T17:59:11;16.80;;;13.30;;
15412;SDS011;7805;49.554;7.632;2023-01-29T18:01:45;18.70;;;14.20;;
15412;SDS011;7805;49.554;7.632;2023-01-29T18:04:11;19.70;;;13.47;;
15412;SDS011;7805;49.554;7.632;2023-01-29T18:06:37;20.63;;;14.40;;
15412;SDS011;7805;49.554;7.632;2023-01-29T18:09:05;17.47;;;12.70;;
15412;SDS011;7805;49.554;7.632;2023-01-29T18:11:31;20.40;;;15.10;;
15412;SDS011;7805;49.554;7.632;2023-01-29T18:13:59;18.97;;;14.90;;
15412;SDS011;7805;49.554;7.632;2023-01-29T18:16:24;17.23;;;13.67;;
15412;SDS011;7805;49.554;7.632;2023-01-29T18:18:50;18.90;;;14.37;;
15412;SDS011;7805;49.554;7.632;2023-01-29T18:21:17;21.97;;;16.03;;
15412;SDS011;7805;49.554;7.632;2023-01-29T18:23:43;31.13;;;21.67;;
15412;SDS011;7805;49.554;7.632;2023-01-29T18:26:11;29.30;;;21.03;;
15412;SDS011;7805;49.554;7.632;2023-01-29T18:28:39;25.17;;;17.87;;
15412;SDS011;7805;49.554;7.632;2023-01-29T18:31:07;30.77;;;24.90;;
15412;SDS011;7805;49.554;7.632;2023-01-29T18:33:34;23.93;;;17.03;;